createdAt,value
2023-02-25T00:00:00.115Z,980.42
2023-02-25T00:05:00.126Z,980.34
2023-02-25T00:10:00.109Z,980.27
2023-02-25T00:15:00.119Z,980.22
2023-02-25T00:20:00.110Z,980.32
2023-02-25T00:25:00.124Z,980.3
2023-02-25T00:30:00.109Z,980.32
2023-02-25T00:35:00.117Z,980.17
2023-02-25T00:40:00.137Z,980.32
2023-02-25T00:45:00.155Z,980.29
2023-02-25T00:50:00.112Z,980.33
2023-02-25T00:55:00.137Z,980.33
2023-02-25T01:00:00.143Z,980.27
2023-02-25T01:05:00.127Z,980.34
2023-02-25T01:10:00.120Z,980.29
2023-02-25T01:15:00.148Z,980.32
2023-02-25T01:20:00.097Z,980.32
2023-02-25T01:25:00.116Z,980.16
2023-02-25T01:30:00.108Z,980.22
2023-02-25T01:35:00.150Z,980.11
2023-02-25T01:40:00.121Z,980.08
2023-02-25T01:45:00.181Z,980.26
2023-02-25T01:50:00.126Z,980.05
2023-02-25T01:55:00.123Z,980.11
2023-02-25T02:00:00.149Z,980.07
2023-02-25T02:05:00.120Z,980.25
2023-02-25T02:10:00.196Z,980.35
2023-02-25T02:15:00.116Z,980.31
2023-02-25T02:20:00.113Z,980.25
2023-02-25T02:25:00.148Z,980.15
2023-02-25T02:30:00.120Z,980.1
2023-02-25T02:35:00.121Z,980.24
2023-02-25T02:40:00.086Z,980.13
2023-02-25T02:45:00.143Z,980.12
2023-02-25T02:50:00.113Z,980.14
2023-02-25T02:55:00.103Z,980.25
2023-02-25T03:00:00.122Z,980.36
2023-02-25T03:05:00.130Z,980.43
2023-02-25T03:10:00.092Z,980.37
2023-02-25T03:15:00.094Z,980.72
2023-02-25T03:20:00.122Z,980.8
2023-02-25T03:25:00.140Z,980.76
2023-02-25T03:30:00.120Z,980.77
2023-02-25T03:35:00.128Z,980.81
2023-02-25T03:40:00.110Z,980.95
2023-02-25T03:45:00.141Z,980.97
2023-02-25T03:50:00.149Z,981.03
2023-02-25T03:55:00.148Z,981.18
2023-02-25T04:00:00.140Z,981.27
2023-02-25T04:05:00.204Z,981.33
2023-02-25T04:10:00.102Z,981.28
2023-02-25T04:15:00.116Z,981.31
2023-02-25T04:20:00.123Z,981.51
2023-02-25T04:25:00.136Z,981.56
2023-02-25T04:30:00.123Z,980.99
2023-02-25T04:35:00.101Z,981.04
2023-02-25T04:40:00.090Z,981.05
2023-02-25T04:45:00.112Z,981.07
2023-02-25T04:50:00.125Z,981.06
2023-02-25T04:55:00.131Z,981.07
2023-02-25T05:00:00.140Z,981.13
2023-02-25T05:05:00.183Z,981.06
2023-02-25T05:10:00.110Z,981.06
2023-02-25T05:15:00.096Z,981.1
2023-02-25T05:20:00.131Z,981.13
2023-02-25T05:25:00.122Z,981.23
2023-02-25T05:30:00.140Z,981.36
2023-02-25T05:35:00.118Z,981.42
2023-02-25T05:40:00.091Z,981.43
2023-02-25T05:45:00.124Z,981.38
2023-02-25T05:50:00.126Z,981.53
2023-02-25T05:55:00.127Z,981.55
2023-02-25T06:00:00.140Z,981.61
2023-02-25T06:05:00.113Z,981.52
2023-02-25T06:10:00.170Z,981.7
2023-02-25T06:15:00.116Z,981.85
2023-02-25T06:20:00.091Z,981.8
2023-02-25T06:25:00.120Z,981.91
2023-02-25T06:30:00.467Z,981.95
2023-02-25T06:35:00.130Z,982
2023-02-25T06:40:00.184Z,982.02
2023-02-25T06:45:00.150Z,982.05
2023-02-25T06:50:02.325Z,982.1
2023-02-25T06:55:00.130Z,982.15
2023-02-25T07:00:00.149Z,982.21
2023-02-25T07:05:00.146Z,982.26
2023-02-25T07:10:00.130Z,982.46
2023-02-25T07:15:00.106Z,982.53
2023-02-25T07:20:00.108Z,982.54
2023-02-25T07:25:00.210Z,982.57
2023-02-25T07:30:00.121Z,982.69
2023-02-25T07:35:00.107Z,982.83
2023-02-25T07:40:00.138Z,982.93
2023-02-25T07:45:02.121Z,983.01
2023-02-25T07:50:00.125Z,983.02
2023-02-25T07:55:00.122Z,983.04
2023-02-25T08:00:00.134Z,982.97
2023-02-25T08:05:00.151Z,983.14
2023-02-25T08:10:00.137Z,983.17
2023-02-25T08:15:00.100Z,983.21
2023-02-25T08:20:00.117Z,983.18
2023-02-25T08:25:00.157Z,983.28
2023-02-25T08:30:00.126Z,983.35
2023-02-25T08:35:00.111Z,983.53
2023-02-25T08:40:00.160Z,983.67
2023-02-25T08:45:00.116Z,983.67
2023-02-25T08:50:00.116Z,983.77
2023-02-25T08:55:00.221Z,983.75
2023-02-25T09:00:00.151Z,983.86
2023-02-25T09:05:00.124Z,983.84
2023-02-25T09:10:00.139Z,983.84
2023-02-25T09:15:00.121Z,984
2023-02-25T09:20:00.098Z,983.94
2023-02-25T09:25:00.142Z,984.02
2023-02-25T09:30:00.162Z,984.06
2023-02-25T09:35:01.392Z,984.15
2023-02-25T09:40:00.116Z,984.13
2023-02-25T09:45:00.145Z,984.23
2023-02-25T09:50:00.148Z,984.27
2023-02-25T09:55:00.113Z,984.22
2023-02-25T10:00:00.138Z,984.28
2023-02-25T10:05:00.151Z,984.31
2023-02-25T10:10:00.170Z,984.58
2023-02-25T10:15:00.146Z,984.63
2023-02-25T10:20:00.138Z,984.8
2023-02-25T10:25:00.143Z,984.81
2023-02-25T10:30:00.144Z,984.93
2023-02-25T10:35:00.137Z,984.81
2023-02-25T10:40:00.177Z,985.07
2023-02-25T10:45:00.180Z,984.96
2023-02-25T10:50:00.137Z,985.01
2023-02-25T10:55:00.100Z,985.1
2023-02-25T11:00:00.148Z,985.11
2023-02-25T11:05:00.123Z,985.19
2023-02-25T11:10:00.110Z,985.07
2023-02-25T11:15:00.203Z,985.26
2023-02-25T11:20:00.112Z,985.23
2023-02-25T11:25:00.161Z,985.34
2023-02-25T11:30:00.124Z,985.28
2023-02-25T11:35:00.150Z,985.4
2023-02-25T11:40:00.113Z,985.44
2023-02-25T11:45:00.143Z,985.41
2023-02-25T11:50:00.157Z,985.3
2023-02-25T11:55:00.114Z,985.42
2023-02-25T12:00:00.164Z,985.43
2023-02-25T12:05:00.134Z,985.63
2023-02-25T12:10:00.118Z,985.67
2023-02-25T12:15:00.160Z,985.77
2023-02-25T12:20:00.114Z,985.81
2023-02-25T12:25:00.133Z,985.9
2023-02-25T12:30:00.144Z,985.89
2023-02-25T12:35:00.147Z,986
2023-02-25T12:40:00.094Z,986.06
2023-02-25T12:45:00.154Z,986.02
2023-02-25T12:50:00.133Z,986.05
2023-02-25T12:55:00.112Z,986.01
2023-02-25T13:00:00.121Z,986.06
2023-02-25T13:05:00.121Z,986
2023-02-25T13:10:00.109Z,986.2
2023-02-25T13:15:00.118Z,986.16
2023-02-25T13:20:00.146Z,986.29
2023-02-25T13:25:00.122Z,986.4
2023-02-25T13:30:00.210Z,986.49
2023-02-25T13:35:00.124Z,986.44
2023-02-25T13:40:00.139Z,986.35
2023-02-25T13:45:00.157Z,986.41
2023-02-25T13:50:00.155Z,986.4
2023-02-25T13:55:00.111Z,986.45
2023-02-25T14:00:00.249Z,986.52
2023-02-25T14:05:00.102Z,986.53
2023-02-25T14:10:00.117Z,986.6
2023-02-25T14:15:00.157Z,986.71
2023-02-25T14:20:00.145Z,986.72
2023-02-25T14:25:00.164Z,986.9
2023-02-25T14:30:00.159Z,986.9
2023-02-25T14:35:00.120Z,987.06
2023-02-25T14:40:00.124Z,987.06
2023-02-25T14:45:00.115Z,987.09
2023-02-25T14:50:00.207Z,987.06
2023-02-25T14:55:00.107Z,987.09
2023-02-25T15:00:00.137Z,987.13
2023-02-25T15:05:00.111Z,987.23
2023-02-25T15:10:00.203Z,987.59
2023-02-25T15:15:00.116Z,987.75
2023-02-25T15:20:00.102Z,987.82
2023-02-25T15:25:00.128Z,987.87
2023-02-25T15:30:00.145Z,987.95
2023-02-25T15:35:00.145Z,988.09
2023-02-25T15:40:00.132Z,988.09
2023-02-25T15:45:00.125Z,988.21
2023-02-25T15:50:00.131Z,988.24
2023-02-25T15:55:00.107Z,988.3
2023-02-25T16:00:00.170Z,988.37
2023-02-25T16:05:00.129Z,988.49
2023-02-25T16:10:00.110Z,988.56
2023-02-25T16:15:00.127Z,988.55
2023-02-25T16:20:00.105Z,988.67
2023-02-25T16:25:00.122Z,988.7
2023-02-25T16:30:00.157Z,988.86
2023-02-25T16:35:00.096Z,988.91
2023-02-25T16:40:00.114Z,989
2023-02-25T16:45:00.170Z,989
2023-02-25T16:50:00.128Z,989.12
2023-02-25T16:55:00.127Z,989.08
2023-02-25T17:00:00.158Z,989.3
2023-02-25T17:05:00.130Z,989.52
2023-02-25T17:10:00.113Z,989.58
2023-02-25T17:15:00.125Z,989.62
2023-02-25T17:20:00.100Z,989.73
2023-02-25T17:25:00.182Z,990.03
2023-02-25T17:30:00.262Z,990.03
2023-02-25T17:35:00.145Z,990.15
2023-02-25T17:40:00.141Z,990.09
2023-02-25T17:45:00.126Z,990.2
2023-02-25T17:50:00.145Z,990.16
2023-02-25T17:55:00.105Z,990.19
2023-02-25T18:00:00.148Z,990.31
2023-02-25T18:05:00.155Z,990.37
2023-02-25T18:10:00.144Z,990.52
2023-02-25T18:15:00.204Z,990.56
2023-02-25T18:20:00.104Z,990.59
2023-02-25T18:25:00.165Z,990.68
2023-02-25T18:30:00.133Z,990.73
2023-02-25T18:35:00.097Z,990.83
2023-02-25T18:40:00.087Z,990.85
2023-02-25T18:45:00.112Z,990.87
2023-02-25T18:50:00.119Z,990.91
2023-02-25T18:55:00.126Z,991.04
2023-02-25T19:00:00.210Z,991.02
2023-02-25T19:05:00.153Z,991.18
2023-02-25T19:10:00.132Z,991.25
2023-02-25T19:15:00.121Z,991.2
2023-02-25T19:20:00.113Z,991.3
2023-02-25T19:25:00.133Z,991.41
2023-02-25T19:30:00.137Z,991.42
2023-02-25T19:35:00.121Z,991.47
2023-02-25T19:40:00.137Z,991.62
2023-02-25T19:45:00.132Z,991.58
2023-02-25T19:50:00.108Z,991.72
2023-02-25T19:55:00.122Z,991.76
2023-02-25T20:00:00.112Z,991.9
2023-02-25T20:05:00.145Z,991.92
2023-02-25T20:10:00.099Z,991.88
2023-02-25T20:15:00.127Z,992.09
2023-02-25T20:20:00.152Z,992.03
2023-02-25T20:25:00.159Z,992.19
2023-02-25T20:30:00.185Z,992.29
2023-02-25T20:35:00.131Z,992.28
2023-02-25T20:40:00.143Z,992.3
2023-02-25T20:45:00.139Z,992.35
2023-02-25T20:50:00.114Z,992.43
2023-02-25T20:55:00.121Z,992.47
2023-02-25T21:00:00.164Z,992.59
2023-02-25T21:05:00.134Z,992.62
2023-02-25T21:10:00.341Z,992.57
2023-02-25T21:15:00.114Z,992.69
2023-02-25T21:20:00.356Z,992.74
2023-02-25T21:25:00.142Z,993.44
2023-02-25T21:30:00.127Z,993.48
2023-02-25T21:35:00.102Z,993.51
2023-02-25T21:40:00.095Z,993.65
2023-02-25T21:45:00.120Z,993.66
2023-02-25T21:50:00.120Z,993.62
2023-02-25T21:55:00.107Z,993.67
2023-02-25T22:00:00.135Z,993.7
2023-02-25T22:05:00.125Z,993.7
2023-02-25T22:10:00.127Z,993.79
2023-02-25T22:15:00.103Z,993.8
2023-02-25T22:20:00.113Z,993.85
2023-02-25T22:25:00.121Z,993.87
2023-02-25T22:30:00.138Z,993.91
2023-02-25T22:35:00.146Z,993.93
2023-02-25T22:40:00.122Z,993.91
2023-02-25T22:45:00.144Z,993.95
2023-02-25T22:50:00.144Z,994.07
2023-02-25T22:55:00.146Z,994.05
2023-02-25T23:00:00.215Z,994.1
2023-02-25T23:05:00.139Z,994.13
2023-02-25T23:10:00.151Z,994.16
2023-02-25T23:15:00.181Z,994.24
2023-02-25T23:20:00.143Z,994.38
2023-02-25T23:25:00.146Z,994.36
2023-02-25T23:30:00.151Z,994.4
2023-02-25T23:35:00.110Z,994.54
2023-02-25T23:40:00.103Z,994.61
2023-02-25T23:45:00.117Z,994.57
2023-02-25T23:50:00.169Z,994.64
2023-02-25T23:55:00.125Z,994.7
